Guaratinga, Brazil
Current Conditions -  °F | °C
As of 2:00 PM on Friday 19 Dec 2014 (Local Time) from SBPS Reporting Station
Rain Showers Rain Showers  
Wind Chill: 77°   Ceiling: 2000
Heat Index: 78°   Visibility: 5mi
Dew Point: 72°   Wind: 13mph
Humidity: 83%   Direction: 40°NE
Pressure: 29.88"   Gusts: NA
Location:  16.58°S, 39.78°W
Report Text: SBPS 191700Z 04011KT 8000 VCSH SCT010 BKN020 BKN070 25/22 Q1012
Loading
Personal Weather Stations






























Interactive Weather Map New forecast layout! Learn more

10-Day Weather Forecast

Advertisements
Track Severe Weather on mobile